Airfield :
LOGIN :

Register | Disclaimer

   EN    FR    IT 

 










Legend :    VFR   Marginal VFR   IFR   Intensive IFR   Very Intensive IFR
Visi :
Ceiling :
>= 8 km
>= 3000ft
5 to 8 km
1000 to 3000 ft
1500m to 5 km
500 to 1000 ft
800 to 1500m
200 to 500 ft
< 800m
< 200 ft
Symbols :   Thunderstorms  Fog  Heavy snow  Heavy precipitations  Wind > 20 kt
SIGMETs :     Misc.  Thunderstorms  Icing  Turbulence  Mountain Waves  Volcanic Ashes







- Airport Elevation : 297 ft
- IATA code : UIP
- Download approach charts


LFRQ - Quimper Pluguffan

CURRENT METAR :
  • 141830Z AUTO 11005KT 6000 OVC010 04/03 Q1020 TEMPO 1300 RA OVC003 BECMG 21011KT

EXPIRED METARs :
  • 141800Z AUTO 12005KT 090V150 6000 BKN009 OVC016 04/03 Q1020 TEMPO 1300 RA OVC003 BECMG 21011KT
  • 141730Z AUTO 11005KT 090V150 6000 BKN007 OVC016 04/03 Q1020 TEMPO 1300 RA OVC003 BECMG 21011KT
  • 141700Z AUTO 12006KT 080V150 6000 OVC008 04/03 Q1020 BECMG 21011KT BKN021
  • 141630Z AUTO 11006KT 6000 OVC008 03/02 Q1020 BECMG 21011KT BKN021
  • 141600Z AUTO 12005KT 090V150 5000 BR OVC009 03/02 Q1020 TEMPO 2000 RA BECMG 21011KT BKN021

TAF TAF LFRQ
Valid from the 14 at 18:00 until the 15 at 18:00 UTC


141700Z 1418/1518 11005KT 5000 OVC007
BECMG 1418/1419 21011KT
TEMPO 1419/1423 1300 RA OVC003
BECMG 1423/1501 21015G31KT 1300 RA OVC003
BECMG 1503/1505 21011KT
BECMG 1509/1511 21015G25KT
BECMG 1511/1512 21015G35KT
BECMG 1515/1517 27019G39KT 9999 NSW BKN017
BECMG 1517/1518 29013KT
No reported NOTAMs for that airfield.



MET'MAP, your aeronautical weather chart ! - Copyright ORBIFLY December 2007 - Disclaimer

ORBIFLY MET'MAP TEAM :

Programming & Development : Alexandra Zaïnal
Concept & Development : Baudouin d'Aumeries
Co-Development & Prog : Marc-Olivier Méhu
Technical & hardware support : Manuel Goepfert

Contact : metmap@orbifly.com




SOURCES & CREDITS :

   NOAA